Harwinton, Connecticut
Current Conditions -  °F | °C
As of 9:55 PM on Wednesday 26 Nov 2014 (Local Time) from KOXC Reporting Station
Overcast Overcast  
Wind Chill: 24°   Ceiling: 800
Heat Index: 34°   Visibility: 2mi
Dew Point: 27°   Wind: 16mph
Humidity: 75%   Direction: 350°N
Pressure: 29.74"   Gusts: 20mph
Location:  41.77°N, 73.07°W
Report Text: KOXC 270255Z 35014G17KT 2SM BKN008 OVC014 01/M03 A2974 RMK AO1 P0002 60012 57003
Loading
Personal Weather Stations






























Interactive Weather Map New forecast layout! Learn more

10-Day Weather Forecast

Advertisements
Track Severe Weather on mobile